sensor_id;sensor_type;location;lat;lon;timestamp;temperature;humidity
15072;DHT22;7635;56.696;13.002;2022-12-18T00:02:11;-0.50;99.90
15072;DHT22;7635;56.696;13.002;2022-12-18T00:04:38;-0.50;99.90
15072;DHT22;7635;56.696;13.002;2022-12-18T00:07:05;-0.60;99.90
15072;DHT22;7635;56.696;13.002;2022-12-18T00:09:31;-0.60;99.90
15072;DHT22;7635;56.696;13.002;2022-12-18T00:11:58;-0.70;99.90
15072;DHT22;7635;56.696;13.002;2022-12-18T00:14:25;-0.70;99.90
15072;DHT22;7635;56.696;13.002;2022-12-18T00:16:53;-0.70;99.90
15072;DHT22;7635;56.696;13.002;2022-12-18T00:19:20;-0.80;99.90
15072;DHT22;7635;56.696;13.002;2022-12-18T00:21:46;-0.80;99.90
15072;DHT22;7635;56.696;13.002;2022-12-18T00:24:13;-0.80;99.90
15072;DHT22;7635;56.696;13.002;2022-12-18T00:26:40;-0.80;99.90
15072;DHT22;7635;56.696;13.002;2022-12-18T00:29:09;-0.90;99.90
15072;DHT22;7635;56.696;13.002;2022-12-18T00:31:40;-0.90;99.90
15072;DHT22;7635;56.696;13.002;2022-12-18T00:34:10;-1.00;99.90
15072;DHT22;7635;56.696;13.002;2022-12-18T00:36:39;-1.00;99.90
15072;DHT22;7635;56.696;13.002;2022-12-18T00:39:05;-1.10;99.90
15072;DHT22;7635;56.696;13.002;2022-12-18T00:41:33;-1.10;99.90
15072;DHT22;7635;56.696;13.002;2022-12-18T00:44:17;-1.10;99.90
15072;DHT22;7635;56.696;13.002;2022-12-18T00:46:46;-1.20;99.90
15072;DHT22;7635;56.696;13.002;2022-12-18T00:49:14;-1.20;99.90
15072;DHT22;7635;56.696;13.002;2022-12-18T00:51:41;-1.20;99.90
15072;DHT22;7635;56.696;13.002;2022-12-18T00:54:08;-1.30;99.90
15072;DHT22;7635;56.696;13.002;2022-12-18T00:56:36;-1.40;99.90
15072;DHT22;7635;56.696;13.002;2022-12-18T00:59:03;-1.40;99.90
15072;DHT22;7635;56.696;13.002;2022-12-18T01:01:30;-1.50;99.90
15072;DHT22;7635;56.696;13.002;2022-12-18T01:03:58;-1.50;99.90
15072;DHT22;7635;56.696;13.002;2022-12-18T01:06:26;-1.60;99.90
15072;DHT22;7635;56.696;13.002;2022-12-18T01:08:53;-1.70;99.90
15072;DHT22;7635;56.696;13.002;2022-12-18T01:11:20;-1.70;99.90
15072;DHT22;7635;56.696;13.002;2022-12-18T01:13:47;-1.90;99.90
15072;DHT22;7635;56.696;13.002;2022-12-18T01:16:15;-1.90;99.90
15072;DHT22;7635;56.696;13.002;2022-12-18T01:18:42;-2.00;99.90
15072;DHT22;7635;56.696;13.002;2022-12-18T01:21:10;-2.00;99.90
15072;DHT22;7635;56.696;13.002;2022-12-18T01:23:39;-2.10;99.90
15072;DHT22;7635;56.696;13.002;2022-12-18T01:26:06;-2.20;99.90
15072;DHT22;7635;56.696;13.002;2022-12-18T01:28:33;-2.20;99.90
15072;DHT22;7635;56.696;13.002;2022-12-18T01:31:10;-2.30;99.90
15072;DHT22;7635;56.696;13.002;2022-12-18T01:33:37;-2.40;99.90
15072;DHT22;7635;56.696;13.002;2022-12-18T01:36:04;-2.40;99.90
15072;DHT22;7635;56.696;13.002;2022-12-18T01:38:31;-2.40;99.90
15072;DHT22;7635;56.696;13.002;2022-12-18T01:40:59;-2.50;99.90
15072;DHT22;7635;56.696;13.002;2022-12-18T01:43:41;-2.50;99.90
15072;DHT22;7635;56.696;13.002;2022-12-18T01:46:08;-2.60;99.90
15072;DHT22;7635;56.696;13.002;2022-12-18T01:48:35;-2.60;99.90
15072;DHT22;7635;56.696;13.002;2022-12-18T01:51:02;-2.60;99.90
15072;DHT22;7635;56.696;13.002;2022-12-18T01:53:30;-2.70;99.90
15072;DHT22;7635;56.696;13.002;2022-12-18T01:55:59;-2.70;99.90
15072;DHT22;7635;56.696;13.002;2022-12-18T01:58:35;-2.70;99.90
15072;DHT22;7635;56.696;13.002;2022-12-18T02:01:03;-2.70;99.90
15072;DHT22;7635;56.696;13.002;2022-12-18T02:03:30;-2.80;99.90
15072;DHT22;7635;56.696;13.002;2022-12-18T02:06:02;-2.80;99.90
15072;DHT22;7635;56.696;13.002;2022-12-18T02:08:39;-2.80;99.90
15072;DHT22;7635;56.696;13.002;2022-12-18T02:11:12;-2.80;99.90
15072;DHT22;7635;56.696;13.002;2022-12-18T02:13:46;-2.90;99.90
15072;DHT22;7635;56.696;13.002;2022-12-18T02:16:20;-2.90;99.90
15072;DHT22;7635;56.696;13.002;2022-12-18T02:18:50;-2.90;99.90
15072;DHT22;7635;56.696;13.002;2022-12-18T02:21:28;-2.80;99.90
15072;DHT22;7635;56.696;13.002;2022-12-18T02:24:04;-2.70;99.90
15072;DHT22;7635;56.696;13.002;2022-12-18T02:26:43;-2.50;99.90
15072;DHT22;7635;56.696;13.002;2022-12-18T02:29:13;-2.30;99.90
15072;DHT22;7635;56.696;13.002;2022-12-18T02:31:44;-2.10;99.90
15072;DHT22;7635;56.696;13.002;2022-12-18T02:34:12;-2.00;99.90
15072;DHT22;7635;56.696;13.002;2022-12-18T02:36:42;-1.80;99.90
15072;DHT22;7635;56.696;13.002;2022-12-18T02:39:11;-1.70;99.90
15072;DHT22;7635;56.696;13.002;2022-12-18T02:41:40;-1.70;99.90
15072;DHT22;7635;56.696;13.002;2022-12-18T02:44:09;-1.60;99.90
15072;DHT22;7635;56.696;13.002;2022-12-18T02:46:38;-1.50;99.90
15072;DHT22;7635;56.696;13.002;2022-12-18T02:49:14;-1.40;99.90
15072;DHT22;7635;56.696;13.002;2022-12-18T02:51:50;-1.40;99.90
15072;DHT22;7635;56.696;13.002;2022-12-18T02:54:29;-1.30;99.90
15072;DHT22;7635;56.696;13.002;2022-12-18T02:57:08;-1.20;99.90
15072;DHT22;7635;56.696;13.002;2022-12-18T02:59:41;-1.20;99.90
15072;DHT22;7635;56.696;13.002;2022-12-18T03:02:17;-1.10;99.90
15072;DHT22;7635;56.696;13.002;2022-12-18T03:04:49;-1.10;99.90
15072;DHT22;7635;56.696;13.002;2022-12-18T03:07:20;-1.00;99.90
15072;DHT22;7635;56.696;13.002;2022-12-18T03:09:50;-1.00;99.90
15072;DHT22;7635;56.696;13.002;2022-12-18T03:12:21;-1.00;99.90
15072;DHT22;7635;56.696;13.002;2022-12-18T03:14:55;-1.00;99.90
15072;DHT22;7635;56.696;13.002;2022-12-18T03:17:24;-1.00;99.90
15072;DHT22;7635;56.696;13.002;2022-12-18T03:19:54;-1.00;99.90
15072;DHT22;7635;56.696;13.002;2022-12-18T03:22:23;-1.00;99.90
15072;DHT22;7635;56.696;13.002;2022-12-18T03:24:51;-1.00;99.90
15072;DHT22;7635;56.696;13.002;2022-12-18T03:27:22;-0.90;99.90
15072;DHT22;7635;56.696;13.002;2022-12-18T03:29:55;-0.90;99.90
15072;DHT22;7635;56.696;13.002;2022-12-18T03:32:27;-0.90;99.90
15072;DHT22;7635;56.696;13.002;2022-12-18T03:34:59;-0.80;99.90
15072;DHT22;7635;56.696;13.002;2022-12-18T03:37:27;-0.70;99.90
15072;DHT22;7635;56.696;13.002;2022-12-18T03:39:54;-0.50;99.90
15072;DHT22;7635;56.696;13.002;2022-12-18T03:42:27;-0.30;99.90
15072;DHT22;7635;56.696;13.002;2022-12-18T03:44:59;-0.10;99.90
15072;DHT22;7635;56.696;13.002;2022-12-18T03:47:30;0.10;99.90
15072;DHT22;7635;56.696;13.002;2022-12-18T03:50:03;0.20;99.90
15072;DHT22;7635;56.696;13.002;2022-12-18T03:52:37;0.30;99.90
15072;DHT22;7635;56.696;13.002;2022-12-18T03:55:06;0.30;99.90
15072;DHT22;7635;56.696;13.002;2022-12-18T03:57:35;0.40;99.90
15072;DHT22;7635;56.696;13.002;2022-12-18T04:00:06;0.50;99.90
15072;DHT22;7635;56.696;13.002;2022-12-18T04:02:33;0.50;99.90
15072;DHT22;7635;56.696;13.002;2022-12-18T04:05:04;0.50;99.90
15072;DHT22;7635;56.696;13.002;2022-12-18T04:07:31;0.50;99.90
15072;DHT22;7635;56.696;13.002;2022-12-18T04:09:59;0.50;99.90
15072;DHT22;7635;56.696;13.002;2022-12-18T04:12:29;0.50;99.90
15072;DHT22;7635;56.696;13.002;2022-12-18T04:14:57;0.50;99.90
15072;DHT22;7635;56.696;13.002;2022-12-18T04:17:24;0.40;99.90
15072;DHT22;7635;56.696;13.002;2022-12-18T04:19:50;0.40;99.90
15072;DHT22;7635;56.696;13.002;2022-12-18T04:22:17;0.40;99.90
15072;DHT22;7635;56.696;13.002;2022-12-18T04:24:44;0.30;99.90
15072;DHT22;7635;56.696;13.002;2022-12-18T04:27:10;0.30;99.90
15072;DHT22;7635;56.696;13.002;2022-12-18T04:29:38;0.30;99.90
15072;DHT22;7635;56.696;13.002;2022-12-18T04:32:06;0.30;99.90
15072;DHT22;7635;56.696;13.002;2022-12-18T04:34:33;0.30;99.90
15072;DHT22;7635;56.696;13.002;2022-12-18T04:36:59;0.40;99.90
15072;DHT22;7635;56.696;13.002;2022-12-18T04:39:26;0.40;99.90
15072;DHT22;7635;56.696;13.002;2022-12-18T04:41:53;0.40;99.90
15072;DHT22;7635;56.696;13.002;2022-12-18T04:44:19;0.50;99.90
15072;DHT22;7635;56.696;13.002;2022-12-18T04:46:46;0.50;99.90
15072;DHT22;7635;56.696;13.002;2022-12-18T04:49:14;0.50;99.90
15072;DHT22;7635;56.696;13.002;2022-12-18T04:51:41;0.50;99.90
15072;DHT22;7635;56.696;13.002;2022-12-18T04:54:07;0.50;99.90
15072;DHT22;7635;56.696;13.002;2022-12-18T04:56:34;0.50;99.90
15072;DHT22;7635;56.696;13.002;2022-12-18T04:59:01;0.60;99.90
15072;DHT22;7635;56.696;13.002;2022-12-18T05:01:27;0.60;99.90
15072;DHT22;7635;56.696;13.002;2022-12-18T05:03:56;0.70;99.90
15072;DHT22;7635;56.696;13.002;2022-12-18T05:06:24;0.70;99.90
15072;DHT22;7635;56.696;13.002;2022-12-18T05:08:51;0.80;99.90
15072;DHT22;7635;56.696;13.002;2022-12-18T05:11:18;0.80;99.90
15072;DHT22;7635;56.696;13.002;2022-12-18T05:13:45;0.80;99.90
15072;DHT22;7635;56.696;13.002;2022-12-18T05:16:12;0.80;99.90
15072;DHT22;7635;56.696;13.002;2022-12-18T05:18:40;0.80;99.90
15072;DHT22;7635;56.696;13.002;2022-12-18T05:21:07;0.80;99.90
15072;DHT22;7635;56.696;13.002;2022-12-18T05:23:35;0.80;99.90
15072;DHT22;7635;56.696;13.002;2022-12-18T05:26:05;0.80;99.90
15072;DHT22;7635;56.696;13.002;2022-12-18T05:28:33;0.90;99.90
15072;DHT22;7635;56.696;13.002;2022-12-18T05:31:02;0.90;99.90
15072;DHT22;7635;56.696;13.002;2022-12-18T05:33:30;0.90;99.90
15072;DHT22;7635;56.696;13.002;2022-12-18T05:35:59;0.90;99.90
15072;DHT22;7635;56.696;13.002;2022-12-18T05:38:29;0.90;99.90
15072;DHT22;7635;56.696;13.002;2022-12-18T05:40:58;0.90;99.90
15072;DHT22;7635;56.696;13.002;2022-12-18T05:43:26;0.90;99.90
15072;DHT22;7635;56.696;13.002;2022-12-18T05:45:53;0.90;99.90
15072;DHT22;7635;56.696;13.002;2022-12-18T05:48:21;0.90;99.90
15072;DHT22;7635;56.696;13.002;2022-12-18T05:50:49;0.90;99.90
15072;DHT22;7635;56.696;13.002;2022-12-18T05:53:18;0.90;99.90
15072;DHT22;7635;56.696;13.002;2022-12-18T05:55:46;0.90;99.90
15072;DHT22;7635;56.696;13.002;2022-12-18T05:58:14;0.80;99.90
15072;DHT22;7635;56.696;13.002;2022-12-18T06:00:45;0.80;99.90
15072;DHT22;7635;56.696;13.002;2022-12-18T06:03:12;0.80;99.90
15072;DHT22;7635;56.696;13.002;2022-12-18T06:05:41;0.80;99.90
15072;DHT22;7635;56.696;13.002;2022-12-18T06:08:09;0.80;99.90
15072;DHT22;7635;56.696;13.002;2022-12-18T06:10:36;0.80;99.90
15072;DHT22;7635;56.696;13.002;2022-12-18T06:13:03;0.80;99.90
15072;DHT22;7635;56.696;13.002;2022-12-18T06:15:32;0.80;99.90
15072;DHT22;7635;56.696;13.002;2022-12-18T06:18:00;0.80;99.90
15072;DHT22;7635;56.696;13.002;2022-12-18T06:20:26;0.80;99.90
15072;DHT22;7635;56.696;13.002;2022-12-18T06:22:53;0.80;99.90
15072;DHT22;7635;56.696;13.002;2022-12-18T06:25:20;0.80;99.90
15072;DHT22;7635;56.696;13.002;2022-12-18T06:27:47;0.90;99.90
15072;DHT22;7635;56.696;13.002;2022-12-18T06:30:14;0.90;99.90
15072;DHT22;7635;56.696;13.002;2022-12-18T06:32:42;0.80;99.90
15072;DHT22;7635;56.696;13.002;2022-12-18T06:35:09;0.90;99.90
15072;DHT22;7635;56.696;13.002;2022-12-18T06:37:35;0.90;99.90
15072;DHT22;7635;56.696;13.002;2022-12-18T06:40:02;0.90;99.90
15072;DHT22;7635;56.696;13.002;2022-12-18T06:42:30;0.90;99.90
15072;DHT22;7635;56.696;13.002;2022-12-18T06:44:57;0.90;99.90
15072;DHT22;7635;56.696;13.002;2022-12-18T06:47:24;0.90;99.90
15072;DHT22;7635;56.696;13.002;2022-12-18T06:49:52;0.90;99.90
15072;DHT22;7635;56.696;13.002;2022-12-18T06:52:18;0.90;99.90
15072;DHT22;7635;56.696;13.002;2022-12-18T06:54:45;0.90;99.90
15072;DHT22;7635;56.696;13.002;2022-12-18T06:57:12;0.90;99.90
15072;DHT22;7635;56.696;13.002;2022-12-18T06:59:38;0.90;99.90
15072;DHT22;7635;56.696;13.002;2022-12-18T07:02:05;0.90;99.90
15072;DHT22;7635;56.696;13.002;2022-12-18T07:04:32;0.90;99.90
15072;DHT22;7635;56.696;13.002;2022-12-18T07:07:00;0.90;99.90
15072;DHT22;7635;56.696;13.002;2022-12-18T07:09:27;0.90;99.90
15072;DHT22;7635;56.696;13.002;2022-12-18T07:11:53;0.90;99.90
15072;DHT22;7635;56.696;13.002;2022-12-18T07:14:20;0.90;99.90
15072;DHT22;7635;56.696;13.002;2022-12-18T07:16:47;0.90;99.90
15072;DHT22;7635;56.696;13.002;2022-12-18T07:19:14;0.90;99.90
15072;DHT22;7635;56.696;13.002;2022-12-18T07:21:40;0.90;99.90
15072;DHT22;7635;56.696;13.002;2022-12-18T07:24:08;0.80;99.90
15072;DHT22;7635;56.696;13.002;2022-12-18T07:26:35;0.90;99.90
15072;DHT22;7635;56.696;13.002;2022-12-18T07:29:02;0.90;99.90
15072;DHT22;7635;56.696;13.002;2022-12-18T07:31:28;0.90;99.90
15072;DHT22;7635;56.696;13.002;2022-12-18T07:33:55;0.90;99.90
15072;DHT22;7635;56.696;13.002;2022-12-18T07:36:22;0.90;99.90
15072;DHT22;7635;56.696;13.002;2022-12-18T07:38:49;0.90;99.90
15072;DHT22;7635;56.696;13.002;2022-12-18T07:41:18;0.90;99.90
15072;DHT22;7635;56.696;13.002;2022-12-18T07:43:45;0.90;99.90
15072;DHT22;7635;56.696;13.002;2022-12-18T07:46:13;0.90;99.90
15072;DHT22;7635;56.696;13.002;2022-12-18T07:48:43;0.90;99.90
15072;DHT22;7635;56.696;13.002;2022-12-18T07:51:10;0.90;99.90
15072;DHT22;7635;56.696;13.002;2022-12-18T07:53:38;0.90;99.90
15072;DHT22;7635;56.696;13.002;2022-12-18T07:56:08;0.90;99.90
15072;DHT22;7635;56.696;13.002;2022-12-18T07:58:36;0.90;99.90
15072;DHT22;7635;56.696;13.002;2022-12-18T08:01:04;1.00;99.90
15072;DHT22;7635;56.696;13.002;2022-12-18T08:03:31;1.00;99.90
15072;DHT22;7635;56.696;13.002;2022-12-18T08:05:59;1.00;99.90
15072;DHT22;7635;56.696;13.002;2022-12-18T08:08:26;1.00;99.90
15072;DHT22;7635;56.696;13.002;2022-12-18T08:10:53;1.00;99.90
15072;DHT22;7635;56.696;13.002;2022-12-18T08:13:20;1.10;99.90
15072;DHT22;7635;56.696;13.002;2022-12-18T08:15:55;1.10;99.90
15072;DHT22;7635;56.696;13.002;2022-12-18T08:18:22;1.10;99.90
15072;DHT22;7635;56.696;13.002;2022-12-18T08:20:49;1.10;99.90
15072;DHT22;7635;56.696;13.002;2022-12-18T08:23:15;1.20;99.90
15072;DHT22;7635;56.696;13.002;2022-12-18T08:25:42;1.20;99.90
15072;DHT22;7635;56.696;13.002;2022-12-18T08:28:09;1.20;99.90
15072;DHT22;7635;56.696;13.002;2022-12-18T08:30:36;1.20;99.90
15072;DHT22;7635;56.696;13.002;2022-12-18T08:33:04;1.20;99.90
15072;DHT22;7635;56.696;13.002;2022-12-18T08:35:34;1.20;99.90
15072;DHT22;7635;56.696;13.002;2022-12-18T08:38:01;1.30;99.90
15072;DHT22;7635;56.696;13.002;2022-12-18T08:40:28;1.30;99.90
15072;DHT22;7635;56.696;13.002;2022-12-18T08:42:54;1.30;99.90
15072;DHT22;7635;56.696;13.002;2022-12-18T08:45:39;1.30;99.90
15072;DHT22;7635;56.696;13.002;2022-12-18T08:48:07;1.30;99.90
15072;DHT22;7635;56.696;13.002;2022-12-18T08:50:34;1.30;99.90
15072;DHT22;7635;56.696;13.002;2022-12-18T08:53:00;1.30;99.90
15072;DHT22;7635;56.696;13.002;2022-12-18T08:55:27;1.40;99.90
15072;DHT22;7635;56.696;13.002;2022-12-18T08:57:54;1.30;99.90
15072;DHT22;7635;56.696;13.002;2022-12-18T09:00:20;1.30;99.90
15072;DHT22;7635;56.696;13.002;2022-12-18T09:02:47;1.30;99.90
15072;DHT22;7635;56.696;13.002;2022-12-18T09:05:15;1.40;99.90
15072;DHT22;7635;56.696;13.002;2022-12-18T09:07:42;1.40;99.90
15072;DHT22;7635;56.696;13.002;2022-12-18T09:10:09;1.40;99.90
15072;DHT22;7635;56.696;13.002;2022-12-18T09:12:35;1.40;99.90
15072;DHT22;7635;56.696;13.002;2022-12-18T09:15:03;1.40;99.90
15072;DHT22;7635;56.696;13.002;2022-12-18T09:17:30;1.50;99.90
15072;DHT22;7635;56.696;13.002;2022-12-18T09:19:56;1.40;99.90
15072;DHT22;7635;56.696;13.002;2022-12-18T09:22:24;1.50;99.90
15072;DHT22;7635;56.696;13.002;2022-12-18T09:24:51;1.50;99.90
15072;DHT22;7635;56.696;13.002;2022-12-18T09:27:17;1.50;99.90
15072;DHT22;7635;56.696;13.002;2022-12-18T09:29:44;1.50;99.90
15072;DHT22;7635;56.696;13.002;2022-12-18T09:32:11;1.40;99.90
15072;DHT22;7635;56.696;13.002;2022-12-18T09:34:37;1.50;99.90
15072;DHT22;7635;56.696;13.002;2022-12-18T09:37:05;1.40;99.90
15072;DHT22;7635;56.696;13.002;2022-12-18T09:39:33;1.40;99.90
15072;DHT22;7635;56.696;13.002;2022-12-18T09:41:59;1.40;99.90
15072;DHT22;7635;56.696;13.002;2022-12-18T09:44:29;1.40;99.90
15072;DHT22;7635;56.696;13.002;2022-12-18T09:47:09;1.40;99.90
15072;DHT22;7635;56.696;13.002;2022-12-18T09:49:41;1.40;99.90
15072;DHT22;7635;56.696;13.002;2022-12-18T09:52:16;1.40;99.90
15072;DHT22;7635;56.696;13.002;2022-12-18T09:54:47;1.40;99.90
15072;DHT22;7635;56.696;13.002;2022-12-18T09:57:19;1.50;99.90
15072;DHT22;7635;56.696;13.002;2022-12-18T09:59:49;1.50;99.90
15072;DHT22;7635;56.696;13.002;2022-12-18T10:02:20;1.50;99.90
15072;DHT22;7635;56.696;13.002;2022-12-18T10:04:55;1.60;99.90
15072;DHT22;7635;56.696;13.002;2022-12-18T10:07:29;1.60;99.90
15072;DHT22;7635;56.696;13.002;2022-12-18T10:10:04;1.70;99.90
15072;DHT22;7635;56.696;13.002;2022-12-18T10:12:36;1.70;99.90
15072;DHT22;7635;56.696;13.002;2022-12-18T10:15:10;1.70;99.90
15072;DHT22;7635;56.696;13.002;2022-12-18T10:17:44;1.70;99.90
15072;DHT22;7635;56.696;13.002;2022-12-18T10:20:17;1.70;99.90
15072;DHT22;7635;56.696;13.002;2022-12-18T10:22:50;1.70;99.90
15072;DHT22;7635;56.696;13.002;2022-12-18T10:25:25;1.70;99.90
15072;DHT22;7635;56.696;13.002;2022-12-18T10:27:56;1.70;99.90
15072;DHT22;7635;56.696;13.002;2022-12-18T10:30:25;1.70;99.90
15072;DHT22;7635;56.696;13.002;2022-12-18T10:32:52;1.70;99.90
15072;DHT22;7635;56.696;13.002;2022-12-18T10:35:22;1.70;99.90
15072;DHT22;7635;56.696;13.002;2022-12-18T10:38:07;1.70;99.90
15072;DHT22;7635;56.696;13.002;2022-12-18T10:40:53;1.70;99.90
15072;DHT22;7635;56.696;13.002;2022-12-18T10:43:23;1.70;99.90
15072;DHT22;7635;56.696;13.002;2022-12-18T10:46:02;1.70;99.90
15072;DHT22;7635;56.696;13.002;2022-12-18T10:48:30;1.80;99.90
15072;DHT22;7635;56.696;13.002;2022-12-18T10:50:58;1.90;99.90
15072;DHT22;7635;56.696;13.002;2022-12-18T10:53:26;1.90;99.90
15072;DHT22;7635;56.696;13.002;2022-12-18T10:55:55;2.00;99.90
15072;DHT22;7635;56.696;13.002;2022-12-18T10:58:25;2.00;99.90
15072;DHT22;7635;56.696;13.002;2022-12-18T11:01:04;2.00;99.90
15072;DHT22;7635;56.696;13.002;2022-12-18T11:03:34;2.00;99.90
15072;DHT22;7635;56.696;13.002;2022-12-18T11:06:03;2.00;99.90
15072;DHT22;7635;56.696;13.002;2022-12-18T11:08:30;2.00;99.90
15072;DHT22;7635;56.696;13.002;2022-12-18T11:10:58;2.00;99.90
15072;DHT22;7635;56.696;13.002;2022-12-18T11:13:27;2.00;99.90
15072;DHT22;7635;56.696;13.002;2022-12-18T11:15:54;2.00;99.90
15072;DHT22;7635;56.696;13.002;2022-12-18T11:18:26;2.00;99.90
15072;DHT22;7635;56.696;13.002;2022-12-18T11:20:55;2.00;99.90
15072;DHT22;7635;56.696;13.002;2022-12-18T11:23:24;1.90;99.90
15072;DHT22;7635;56.696;13.002;2022-12-18T11:25:54;2.00;99.90
15072;DHT22;7635;56.696;13.002;2022-12-18T11:28:34;2.00;99.90
15072;DHT22;7635;56.696;13.002;2022-12-18T11:31:22;2.00;99.90
15072;DHT22;7635;56.696;13.002;2022-12-18T11:34:05;2.00;99.90
15072;DHT22;7635;56.696;13.002;2022-12-18T11:36:39;2.10;99.90
15072;DHT22;7635;56.696;13.002;2022-12-18T11:39:12;2.10;99.90
15072;DHT22;7635;56.696;13.002;2022-12-18T11:41:48;2.10;99.90
15072;DHT22;7635;56.696;13.002;2022-12-18T11:44:38;2.20;99.90
15072;DHT22;7635;56.696;13.002;2022-12-18T11:47:13;2.20;99.90
15072;DHT22;7635;56.696;13.002;2022-12-18T11:49:42;2.30;99.90
15072;DHT22;7635;56.696;13.002;2022-12-18T11:52:15;2.30;99.90
15072;DHT22;7635;56.696;13.002;2022-12-18T11:54:43;2.40;99.90
15072;DHT22;7635;56.696;13.002;2022-12-18T11:57:15;2.40;99.90
15072;DHT22;7635;56.696;13.002;2022-12-18T11:59:51;2.40;99.90
15072;DHT22;7635;56.696;13.002;2022-12-18T12:02:40;2.40;99.90
15072;DHT22;7635;56.696;13.002;2022-12-18T12:05:25;2.30;99.90
15072;DHT22;7635;56.696;13.002;2022-12-18T12:08:00;2.30;99.90
15072;DHT22;7635;56.696;13.002;2022-12-18T12:10:39;2.20;99.90
15072;DHT22;7635;56.696;13.002;2022-12-18T12:13:23;2.20;99.90
15072;DHT22;7635;56.696;13.002;2022-12-18T12:16:01;2.20;99.90
15072;DHT22;7635;56.696;13.002;2022-12-18T12:18:35;2.20;99.90
15072;DHT22;7635;56.696;13.002;2022-12-18T12:21:09;2.20;99.90
15072;DHT22;7635;56.696;13.002;2022-12-18T12:23:43;2.10;99.90
15072;DHT22;7635;56.696;13.002;2022-12-18T12:26:21;2.20;99.90
15072;DHT22;7635;56.696;13.002;2022-12-18T12:29:01;2.20;99.90
15072;DHT22;7635;56.696;13.002;2022-12-18T12:32:00;2.20;99.90
15072;DHT22;7635;56.696;13.002;2022-12-18T12:34:34;2.20;99.90
15072;DHT22;7635;56.696;13.002;2022-12-18T12:37:15;2.20;99.90
15072;DHT22;7635;56.696;13.002;2022-12-18T12:39:47;2.20;99.90
15072;DHT22;7635;56.696;13.002;2022-12-18T12:42:19;2.20;99.90
15072;DHT22;7635;56.696;13.002;2022-12-18T12:45:06;2.20;99.90
15072;DHT22;7635;56.696;13.002;2022-12-18T12:47:42;2.20;99.90
15072;DHT22;7635;56.696;13.002;2022-12-18T12:50:14;2.10;99.90
15072;DHT22;7635;56.696;13.002;2022-12-18T12:52:44;2.10;99.90
15072;DHT22;7635;56.696;13.002;2022-12-18T12:55:16;2.10;99.90
15072;DHT22;7635;56.696;13.002;2022-12-18T12:57:47;2.00;99.90
15072;DHT22;7635;56.696;13.002;2022-12-18T13:00:16;2.10;99.90
15072;DHT22;7635;56.696;13.002;2022-12-18T13:02:48;2.00;99.90
15072;DHT22;7635;56.696;13.002;2022-12-18T13:05:22;2.00;99.90
15072;DHT22;7635;56.696;13.002;2022-12-18T13:07:53;2.00;99.90
15072;DHT22;7635;56.696;13.002;2022-12-18T13:10:32;2.00;99.90
15072;DHT22;7635;56.696;13.002;2022-12-18T13:13:00;2.00;99.90
15072;DHT22;7635;56.696;13.002;2022-12-18T13:15:31;2.00;99.90
15072;DHT22;7635;56.696;13.002;2022-12-18T13:18:16;1.90;99.90
15072;DHT22;7635;56.696;13.002;2022-12-18T13:20:44;1.90;99.90
15072;DHT22;7635;56.696;13.002;2022-12-18T13:23:32;1.90;99.90
15072;DHT22;7635;56.696;13.002;2022-12-18T13:26:30;1.90;99.90
15072;DHT22;7635;56.696;13.002;2022-12-18T13:28:58;1.90;99.90
15072;DHT22;7635;56.696;13.002;2022-12-18T13:34:36;1.90;99.90
15072;DHT22;7635;56.696;13.002;2022-12-18T13:37:39;1.90;99.90
15072;DHT22;7635;56.696;13.002;2022-12-18T13:43:20;1.80;99.90
15072;DHT22;7635;56.696;13.002;2022-12-18T13:45:58;1.80;99.90
15072;DHT22;7635;56.696;13.002;2022-12-18T13:48:26;1.80;99.90
15072;DHT22;7635;56.696;13.002;2022-12-18T13:51:00;1.80;99.90
15072;DHT22;7635;56.696;13.002;2022-12-18T13:53:33;1.80;99.90
15072;DHT22;7635;56.696;13.002;2022-12-18T13:56:00;1.80;99.90
15072;DHT22;7635;56.696;13.002;2022-12-18T13:58:28;1.80;99.90
15072;DHT22;7635;56.696;13.002;2022-12-18T14:00:54;1.80;99.90
15072;DHT22;7635;56.696;13.002;2022-12-18T14:03:24;1.80;99.90
15072;DHT22;7635;56.696;13.002;2022-12-18T14:05:58;1.80;99.90
15072;DHT22;7635;56.696;13.002;2022-12-18T14:08:29;1.70;99.90
15072;DHT22;7635;56.696;13.002;2022-12-18T14:10:58;1.70;99.90
15072;DHT22;7635;56.696;13.002;2022-12-18T14:13:30;1.70;99.90
15072;DHT22;7635;56.696;13.002;2022-12-18T14:15:57;1.70;99.90
15072;DHT22;7635;56.696;13.002;2022-12-18T14:18:31;1.70;99.90
15072;DHT22;7635;56.696;13.002;2022-12-18T14:21:02;1.70;99.90
15072;DHT22;7635;56.696;13.002;2022-12-18T14:23:32;1.70;99.90
15072;DHT22;7635;56.696;13.002;2022-12-18T14:25:59;1.70;99.90
15072;DHT22;7635;56.696;13.002;2022-12-18T14:28:26;1.70;99.90
15072;DHT22;7635;56.696;13.002;2022-12-18T14:30:53;1.60;99.90
15072;DHT22;7635;56.696;13.002;2022-12-18T14:33:22;1.60;99.90
15072;DHT22;7635;56.696;13.002;2022-12-18T14:35:57;1.60;99.90
15072;DHT22;7635;56.696;13.002;2022-12-18T14:38:29;1.60;99.90
15072;DHT22;7635;56.696;13.002;2022-12-18T14:40:57;1.60;99.90
15072;DHT22;7635;56.696;13.002;2022-12-18T14:43:24;1.50;99.90
15072;DHT22;7635;56.696;13.002;2022-12-18T14:45:51;1.50;99.90
15072;DHT22;7635;56.696;13.002;2022-12-18T14:48:19;1.60;99.90
15072;DHT22;7635;56.696;13.002;2022-12-18T14:50:56;1.50;99.90
15072;DHT22;7635;56.696;13.002;2022-12-18T14:53:32;1.50;99.90
15072;DHT22;7635;56.696;13.002;2022-12-18T14:56:00;1.50;99.90
15072;DHT22;7635;56.696;13.002;2022-12-18T14:58:27;1.50;99.90
15072;DHT22;7635;56.696;13.002;2022-12-18T15:00:54;1.50;99.90
15072;DHT22;7635;56.696;13.002;2022-12-18T15:03:21;1.50;99.90
15072;DHT22;7635;56.696;13.002;2022-12-18T15:05:48;1.50;99.90
15072;DHT22;7635;56.696;13.002;2022-12-18T15:08:28;1.50;99.90
15072;DHT22;7635;56.696;13.002;2022-12-18T15:10:57;1.40;99.90
15072;DHT22;7635;56.696;13.002;2022-12-18T15:13:24;1.40;99.90
15072;DHT22;7635;56.696;13.002;2022-12-18T15:15:52;1.40;99.90
15072;DHT22;7635;56.696;13.002;2022-12-18T15:18:21;1.40;99.90
15072;DHT22;7635;56.696;13.002;2022-12-18T15:20:52;1.30;99.90
15072;DHT22;7635;56.696;13.002;2022-12-18T15:23:21;1.40;99.90
15072;DHT22;7635;56.696;13.002;2022-12-18T15:25:56;1.40;99.90
15072;DHT22;7635;56.696;13.002;2022-12-18T15:28:26;1.30;99.90
15072;DHT22;7635;56.696;13.002;2022-12-18T15:31:05;1.30;99.90
15072;DHT22;7635;56.696;13.002;2022-12-18T15:33:34;1.30;99.90
15072;DHT22;7635;56.696;13.002;2022-12-18T15:36:02;1.30;99.90
15072;DHT22;7635;56.696;13.002;2022-12-18T15:38:30;1.20;99.90
15072;DHT22;7635;56.696;13.002;2022-12-18T15:40:58;1.20;99.90
15072;DHT22;7635;56.696;13.002;2022-12-18T15:43:25;1.20;99.90
15072;DHT22;7635;56.696;13.002;2022-12-18T15:46:02;1.10;99.90
15072;DHT22;7635;56.696;13.002;2022-12-18T15:48:29;1.10;99.90
15072;DHT22;7635;56.696;13.002;2022-12-18T15:50:56;1.10;99.90
15072;DHT22;7635;56.696;13.002;2022-12-18T15:53:25;1.00;99.90
15072;DHT22;7635;56.696;13.002;2022-12-18T15:55:53;1.00;99.90
15072;DHT22;7635;56.696;13.002;2022-12-18T15:58:39;0.90;99.90
15072;DHT22;7635;56.696;13.002;2022-12-18T16:01:08;0.90;99.90
15072;DHT22;7635;56.696;13.002;2022-12-18T16:03:35;0.90;99.90
15072;DHT22;7635;56.696;13.002;2022-12-18T16:06:02;0.90;99.90
15072;DHT22;7635;56.696;13.002;2022-12-18T16:08:29;0.80;99.90